KCKV/CKV METAR and TAF weather

Enter ICAO airport designator
Station Type Date Time Source
KCKV METAR 2019/06/26 21:52 UTC NOAA

KCKV 262152Z AUTO 18010KT 10SM SCT047 32/22 A3008 RMK AO2 SLP181 T03170217


Station Type Date Time Source
KCKV Decoded METAR 2019/06/26 21:52 UTC NOAA

CLARKSVILLE OUTLAW FIELD, TN, United States (KCKV) 36-37N 87-25W 165M
Jun 26, 2019 - 05:52 PM EDT / 2019.06.26 2152 UTC
Wind: from the S (180 degrees) at 12 MPH (10 KT):0
Visibility: 10 mile(s):0
Sky conditions: partly cloudy
Temperature: 89.1 F (31.7 C)
Heat index: 95.2 F (35.1 C):1
Dew Point: 71.1 F (21.7 C)
Relative Humidity: 55%
Pressure (altimeter): 30.08 in. Hg (1018 hPa)
ob: KCKV 262152Z AUTO 18010KT 10SM SCT047 32/22 A3008 RMK AO2 SLP181 T03170217
cycle: 22

Station Type Date Time Source
KCKV TAF 2019/06/26 22:33 UTC NOAA

TAF
AMD KCKV 262130Z 2622/2718 20005KT P6SM VCTS SCT030CB BKN250
FM270300 21003KT P6SM BKN250
FM270800 00000KT 4SM BR BKN250
FM271300 16003KT P6SM BKN250

Example: see airport list